sensor_id;sensor_type;location;lat;lon;timestamp;P1;durP1;ratioP1;P2;durP2;ratioP2
9080;SDS011;13509;50.760;6.080;2023-11-19T00:00:57;1.20;;;0.97;;
9080;SDS011;13509;50.760;6.080;2023-11-19T00:03:25;1.40;;;1.23;;
9080;SDS011;13509;50.760;6.080;2023-11-19T00:05:55;0.93;;;0.93;;
9080;SDS011;13509;50.760;6.080;2023-11-19T00:08:24;1.33;;;1.23;;
9080;SDS011;13509;50.760;6.080;2023-11-19T00:10:53;1.00;;;1.00;;
9080;SDS011;13509;50.760;6.080;2023-11-19T00:13:21;4.43;;;1.00;;
9080;SDS011;13509;50.760;6.080;2023-11-19T00:15:52;1.20;;;1.00;;
9080;SDS011;13509;50.760;6.080;2023-11-19T00:18:20;3.10;;;1.40;;
9080;SDS011;13509;50.760;6.080;2023-11-19T00:20:49;1.73;;;1.17;;
9080;SDS011;13509;50.760;6.080;2023-11-19T00:23:19;1.10;;;1.10;;
9080;SDS011;13509;50.760;6.080;2023-11-19T00:25:47;2.13;;;1.30;;
9080;SDS011;13509;50.760;6.080;2023-11-19T00:28:15;2.50;;;1.30;;
9080;SDS011;13509;50.760;6.080;2023-11-19T00:30:44;1.53;;;1.20;;
9080;SDS011;13509;50.760;6.080;2023-11-19T00:33:12;1.57;;;1.20;;
9080;SDS011;13509;50.760;6.080;2023-11-19T00:35:40;2.60;;;1.30;;
9080;SDS011;13509;50.760;6.080;2023-11-19T00:38:09;1.60;;;1.50;;
9080;SDS011;13509;50.760;6.080;2023-11-19T00:40:40;1.43;;;1.30;;
9080;SDS011;13509;50.760;6.080;2023-11-19T00:43:08;2.73;;;1.60;;
9080;SDS011;13509;50.760;6.080;2023-11-19T00:45:37;2.40;;;1.67;;
9080;SDS011;13509;50.760;6.080;2023-11-19T00:48:05;3.03;;;1.60;;
9080;SDS011;13509;50.760;6.080;2023-11-19T00:50:33;1.80;;;1.70;;
9080;SDS011;13509;50.760;6.080;2023-11-19T00:53:04;3.43;;;1.80;;
9080;SDS011;13509;50.760;6.080;2023-11-19T00:55:32;3.00;;;1.80;;
9080;SDS011;13509;50.760;6.080;2023-11-19T00:58:02;2.83;;;1.97;;
9080;SDS011;13509;50.760;6.080;2023-11-19T01:00:30;3.87;;;2.13;;
9080;SDS011;13509;50.760;6.080;2023-11-19T01:02:58;3.77;;;1.87;;
9080;SDS011;13509;50.760;6.080;2023-11-19T01:05:27;3.43;;;1.60;;
9080;SDS011;13509;50.760;6.080;2023-11-19T01:07:55;1.90;;;1.60;;
9080;SDS011;13509;50.760;6.080;2023-11-19T01:10:24;3.27;;;1.80;;
9080;SDS011;13509;50.760;6.080;2023-11-19T01:12:52;3.47;;;1.57;;
9080;SDS011;13509;50.760;6.080;2023-11-19T01:15:22;1.77;;;1.40;;
9080;SDS011;13509;50.760;6.080;2023-11-19T01:17:50;6.60;;;1.97;;
9080;SDS011;13509;50.760;6.080;2023-11-19T01:20:19;2.00;;;1.43;;
9080;SDS011;13509;50.760;6.080;2023-11-19T01:22:48;3.00;;;1.50;;
9080;SDS011;13509;50.760;6.080;2023-11-19T01:25:16;4.70;;;2.00;;
9080;SDS011;13509;50.760;6.080;2023-11-19T01:27:45;3.73;;;1.87;;
9080;SDS011;13509;50.760;6.080;2023-11-19T01:30:13;5.10;;;1.77;;
9080;SDS011;13509;50.760;6.080;2023-11-19T01:32:43;6.23;;;1.90;;
9080;SDS011;13509;50.760;6.080;2023-11-19T01:35:11;4.43;;;2.00;;
9080;SDS011;13509;50.760;6.080;2023-11-19T01:37:40;3.80;;;1.80;;
9080;SDS011;13509;50.760;6.080;2023-11-19T01:40:09;7.23;;;2.10;;
9080;SDS011;13509;50.760;6.080;2023-11-19T01:42:38;5.43;;;2.00;;
9080;SDS011;13509;50.760;6.080;2023-11-19T01:45:07;5.77;;;2.10;;
9080;SDS011;13509;50.760;6.080;2023-11-19T01:47:37;5.67;;;1.90;;
9080;SDS011;13509;50.760;6.080;2023-11-19T01:50:07;8.50;;;2.00;;
9080;SDS011;13509;50.760;6.080;2023-11-19T01:52:36;6.33;;;2.07;;
9080;SDS011;13509;50.760;6.080;2023-11-19T01:55:05;4.23;;;2.07;;
9080;SDS011;13509;50.760;6.080;2023-11-19T01:57:35;11.53;;;2.50;;
9080;SDS011;13509;50.760;6.080;2023-11-19T02:00:05;4.80;;;2.10;;
9080;SDS011;13509;50.760;6.080;2023-11-19T02:02:37;8.20;;;2.03;;
9080;SDS011;13509;50.760;6.080;2023-11-19T02:05:09;6.40;;;2.57;;
9080;SDS011;13509;50.760;6.080;2023-11-19T02:07:37;4.87;;;2.00;;
9080;SDS011;13509;50.760;6.080;2023-11-19T02:10:06;6.53;;;2.27;;
9080;SDS011;13509;50.760;6.080;2023-11-19T02:12:39;8.67;;;1.93;;
9080;SDS011;13509;50.760;6.080;2023-11-19T02:15:10;13.80;;;2.30;;
9080;SDS011;13509;50.760;6.080;2023-11-19T02:17:38;5.87;;;2.20;;
9080;SDS011;13509;50.760;6.080;2023-11-19T02:20:08;8.53;;;2.40;;
9080;SDS011;13509;50.760;6.080;2023-11-19T02:22:38;9.20;;;2.60;;
9080;SDS011;13509;50.760;6.080;2023-11-19T02:25:07;5.97;;;2.60;;
9080;SDS011;13509;50.760;6.080;2023-11-19T02:27:45;6.60;;;2.30;;
9080;SDS011;13509;50.760;6.080;2023-11-19T02:30:15;8.07;;;2.97;;
9080;SDS011;13509;50.760;6.080;2023-11-19T02:32:43;8.10;;;2.83;;
9080;SDS011;13509;50.760;6.080;2023-11-19T02:35:12;4.67;;;2.20;;
9080;SDS011;13509;50.760;6.080;2023-11-19T02:37:40;9.70;;;2.33;;
9080;SDS011;13509;50.760;6.080;2023-11-19T02:40:09;11.97;;;2.53;;
9080;SDS011;13509;50.760;6.080;2023-11-19T02:42:37;11.13;;;2.40;;
9080;SDS011;13509;50.760;6.080;2023-11-19T02:45:08;6.00;;;2.27;;
9080;SDS011;13509;50.760;6.080;2023-11-19T02:47:40;14.77;;;3.17;;
9080;SDS011;13509;50.760;6.080;2023-11-19T02:50:09;5.63;;;2.40;;
9080;SDS011;13509;50.760;6.080;2023-11-19T02:52:40;5.90;;;2.30;;
9080;SDS011;13509;50.760;6.080;2023-11-19T02:55:09;8.17;;;2.50;;
9080;SDS011;13509;50.760;6.080;2023-11-19T02:57:39;11.13;;;2.67;;
9080;SDS011;13509;50.760;6.080;2023-11-19T03:00:14;9.23;;;3.40;;
9080;SDS011;13509;50.760;6.080;2023-11-19T03:02:43;10.20;;;2.70;;
9080;SDS011;13509;50.760;6.080;2023-11-19T03:05:13;9.67;;;2.63;;
9080;SDS011;13509;50.760;6.080;2023-11-19T03:07:43;10.87;;;2.40;;
9080;SDS011;13509;50.760;6.080;2023-11-19T03:10:11;12.43;;;2.83;;
9080;SDS011;13509;50.760;6.080;2023-11-19T03:12:41;10.23;;;2.97;;
9080;SDS011;13509;50.760;6.080;2023-11-19T03:15:09;11.77;;;2.80;;
9080;SDS011;13509;50.760;6.080;2023-11-19T03:17:39;10.60;;;2.50;;
9080;SDS011;13509;50.760;6.080;2023-11-19T03:20:08;12.00;;;2.33;;
9080;SDS011;13509;50.760;6.080;2023-11-19T03:22:37;12.80;;;2.77;;
9080;SDS011;13509;50.760;6.080;2023-11-19T03:25:05;8.37;;;2.40;;
9080;SDS011;13509;50.760;6.080;2023-11-19T03:27:34;6.60;;;2.73;;
9080;SDS011;13509;50.760;6.080;2023-11-19T03:30:03;10.13;;;2.53;;
9080;SDS011;13509;50.760;6.080;2023-11-19T03:32:31;6.97;;;2.73;;
9080;SDS011;13509;50.760;6.080;2023-11-19T03:35:03;5.33;;;2.47;;
9080;SDS011;13509;50.760;6.080;2023-11-19T03:37:33;8.37;;;2.63;;
9080;SDS011;13509;50.760;6.080;2023-11-19T03:40:02;5.57;;;2.40;;
9080;SDS011;13509;50.760;6.080;2023-11-19T03:42:30;11.10;;;2.40;;
9080;SDS011;13509;50.760;6.080;2023-11-19T03:44:59;10.40;;;2.60;;
9080;SDS011;13509;50.760;6.080;2023-11-19T03:47:27;10.30;;;3.13;;
9080;SDS011;13509;50.760;6.080;2023-11-19T03:49:55;9.87;;;2.77;;
9080;SDS011;13509;50.760;6.080;2023-11-19T03:52:25;10.67;;;2.70;;
9080;SDS011;13509;50.760;6.080;2023-11-19T03:54:54;9.27;;;2.80;;
9080;SDS011;13509;50.760;6.080;2023-11-19T03:57:23;9.33;;;3.13;;
9080;SDS011;13509;50.760;6.080;2023-11-19T03:59:51;8.13;;;2.47;;
9080;SDS011;13509;50.760;6.080;2023-11-19T04:02:20;8.53;;;2.37;;
9080;SDS011;13509;50.760;6.080;2023-11-19T04:04:48;6.03;;;2.50;;
9080;SDS011;13509;50.760;6.080;2023-11-19T04:07:16;11.73;;;2.60;;
9080;SDS011;13509;50.760;6.080;2023-11-19T04:09:46;13.73;;;3.33;;
9080;SDS011;13509;50.760;6.080;2023-11-19T04:12:14;15.60;;;3.33;;
9080;SDS011;13509;50.760;6.080;2023-11-19T04:14:42;8.47;;;2.47;;
9080;SDS011;13509;50.760;6.080;2023-11-19T04:17:11;10.03;;;2.40;;
9080;SDS011;13509;50.760;6.080;2023-11-19T04:19:39;15.40;;;2.97;;
9080;SDS011;13509;50.760;6.080;2023-11-19T04:22:08;15.73;;;3.10;;
9080;SDS011;13509;50.760;6.080;2023-11-19T04:24:37;14.47;;;2.77;;
9080;SDS011;13509;50.760;6.080;2023-11-19T04:27:08;10.17;;;2.47;;
9080;SDS011;13509;50.760;6.080;2023-11-19T04:29:36;12.50;;;2.50;;
9080;SDS011;13509;50.760;6.080;2023-11-19T04:32:05;11.93;;;2.60;;
9080;SDS011;13509;50.760;6.080;2023-11-19T04:34:34;17.13;;;2.53;;
9080;SDS011;13509;50.760;6.080;2023-11-19T04:37:03;18.57;;;3.60;;
9080;SDS011;13509;50.760;6.080;2023-11-19T04:39:34;10.90;;;2.30;;
9080;SDS011;13509;50.760;6.080;2023-11-19T04:42:03;13.37;;;3.07;;
9080;SDS011;13509;50.760;6.080;2023-11-19T04:44:34;16.30;;;2.90;;
9080;SDS011;13509;50.760;6.080;2023-11-19T04:47:02;13.53;;;2.70;;
9080;SDS011;13509;50.760;6.080;2023-11-19T04:49:31;14.60;;;2.60;;
9080;SDS011;13509;50.760;6.080;2023-11-19T04:51:59;11.07;;;2.30;;
9080;SDS011;13509;50.760;6.080;2023-11-19T04:54:29;16.23;;;2.70;;
9080;SDS011;13509;50.760;6.080;2023-11-19T04:56:57;19.33;;;3.37;;
9080;SDS011;13509;50.760;6.080;2023-11-19T04:59:25;14.93;;;2.73;;
9080;SDS011;13509;50.760;6.080;2023-11-19T05:01:55;18.23;;;2.80;;
9080;SDS011;13509;50.760;6.080;2023-11-19T05:04:24;17.93;;;3.00;;
9080;SDS011;13509;50.760;6.080;2023-11-19T05:06:52;12.17;;;3.00;;
9080;SDS011;13509;50.760;6.080;2023-11-19T05:09:21;20.80;;;3.00;;
9080;SDS011;13509;50.760;6.080;2023-11-19T05:11:49;13.77;;;2.80;;
9080;SDS011;13509;50.760;6.080;2023-11-19T05:14:17;15.90;;;2.77;;
9080;SDS011;13509;50.760;6.080;2023-11-19T05:16:46;16.03;;;3.47;;
9080;SDS011;13509;50.760;6.080;2023-11-19T05:19:17;15.07;;;3.33;;
9080;SDS011;13509;50.760;6.080;2023-11-19T05:21:45;14.47;;;3.00;;
9080;SDS011;13509;50.760;6.080;2023-11-19T05:24:13;10.43;;;3.20;;
9080;SDS011;13509;50.760;6.080;2023-11-19T05:26:41;16.57;;;3.53;;
9080;SDS011;13509;50.760;6.080;2023-11-19T05:29:10;17.23;;;3.30;;
9080;SDS011;13509;50.760;6.080;2023-11-19T05:31:38;17.47;;;3.43;;
9080;SDS011;13509;50.760;6.080;2023-11-19T05:34:10;14.80;;;3.50;;
9080;SDS011;13509;50.760;6.080;2023-11-19T05:36:42;19.57;;;3.33;;
9080;SDS011;13509;50.760;6.080;2023-11-19T05:39:11;11.97;;;2.60;;
9080;SDS011;13509;50.760;6.080;2023-11-19T05:41:39;14.47;;;3.30;;
9080;SDS011;13509;50.760;6.080;2023-11-19T05:44:07;12.83;;;3.30;;
9080;SDS011;13509;50.760;6.080;2023-11-19T05:46:36;20.87;;;3.60;;
9080;SDS011;13509;50.760;6.080;2023-11-19T05:49:08;18.70;;;3.20;;
9080;SDS011;13509;50.760;6.080;2023-11-19T05:51:37;14.83;;;3.43;;
9080;SDS011;13509;50.760;6.080;2023-11-19T05:54:07;8.87;;;2.40;;
9080;SDS011;13509;50.760;6.080;2023-11-19T05:56:36;15.03;;;3.83;;
9080;SDS011;13509;50.760;6.080;2023-11-19T05:59:04;15.33;;;3.30;;
9080;SDS011;13509;50.760;6.080;2023-11-19T06:01:41;14.23;;;2.87;;
9080;SDS011;13509;50.760;6.080;2023-11-19T06:04:09;21.40;;;3.50;;
9080;SDS011;13509;50.760;6.080;2023-11-19T06:06:38;12.90;;;3.03;;
9080;SDS011;13509;50.760;6.080;2023-11-19T06:09:08;19.97;;;2.83;;
9080;SDS011;13509;50.760;6.080;2023-11-19T06:11:39;11.57;;;3.10;;
9080;SDS011;13509;50.760;6.080;2023-11-19T06:14:08;15.87;;;4.00;;
9080;SDS011;13509;50.760;6.080;2023-11-19T06:16:36;15.33;;;3.63;;
9080;SDS011;13509;50.760;6.080;2023-11-19T06:19:06;20.53;;;3.40;;
9080;SDS011;13509;50.760;6.080;2023-11-19T06:21:36;12.67;;;3.17;;
9080;SDS011;13509;50.760;6.080;2023-11-19T06:24:04;17.77;;;3.07;;
9080;SDS011;13509;50.760;6.080;2023-11-19T06:26:34;16.63;;;2.93;;
9080;SDS011;13509;50.760;6.080;2023-11-19T06:29:02;15.30;;;2.80;;
9080;SDS011;13509;50.760;6.080;2023-11-19T06:31:30;14.70;;;2.93;;
9080;SDS011;13509;50.760;6.080;2023-11-19T06:33:59;18.50;;;3.23;;
9080;SDS011;13509;50.760;6.080;2023-11-19T06:36:27;16.47;;;3.10;;
9080;SDS011;13509;50.760;6.080;2023-11-19T06:38:56;13.97;;;2.80;;
9080;SDS011;13509;50.760;6.080;2023-11-19T06:41:24;15.53;;;3.00;;
9080;SDS011;13509;50.760;6.080;2023-11-19T06:43:54;20.50;;;3.20;;
9080;SDS011;13509;50.760;6.080;2023-11-19T06:46:22;17.37;;;3.73;;
9080;SDS011;13509;50.760;6.080;2023-11-19T06:48:51;15.63;;;3.53;;
9080;SDS011;13509;50.760;6.080;2023-11-19T06:51:19;18.33;;;3.47;;
9080;SDS011;13509;50.760;6.080;2023-11-19T06:53:47;18.03;;;3.73;;
9080;SDS011;13509;50.760;6.080;2023-11-19T06:56:19;16.07;;;3.63;;
9080;SDS011;13509;50.760;6.080;2023-11-19T06:58:48;18.43;;;3.10;;
9080;SDS011;13509;50.760;6.080;2023-11-19T07:01:18;20.80;;;3.50;;
9080;SDS011;13509;50.760;6.080;2023-11-19T07:03:46;15.50;;;3.83;;
9080;SDS011;13509;50.760;6.080;2023-11-19T07:06:15;21.13;;;3.07;;
9080;SDS011;13509;50.760;6.080;2023-11-19T07:08:44;16.67;;;3.83;;
9080;SDS011;13509;50.760;6.080;2023-11-19T07:11:13;17.30;;;3.87;;
9080;SDS011;13509;50.760;6.080;2023-11-19T07:13:43;11.83;;;3.50;;
9080;SDS011;13509;50.760;6.080;2023-11-19T07:16:13;17.10;;;3.57;;
9080;SDS011;13509;50.760;6.080;2023-11-19T07:18:43;16.10;;;3.30;;
9080;SDS011;13509;50.760;6.080;2023-11-19T07:21:11;23.03;;;3.70;;
9080;SDS011;13509;50.760;6.080;2023-11-19T07:23:40;19.83;;;3.80;;
9080;SDS011;13509;50.760;6.080;2023-11-19T07:26:08;13.43;;;3.23;;
9080;SDS011;13509;50.760;6.080;2023-11-19T07:28:37;17.43;;;3.40;;
9080;SDS011;13509;50.760;6.080;2023-11-19T07:31:06;19.97;;;3.47;;
9080;SDS011;13509;50.760;6.080;2023-11-19T07:33:35;17.10;;;4.17;;
9080;SDS011;13509;50.760;6.080;2023-11-19T07:36:05;21.53;;;3.47;;
9080;SDS011;13509;50.760;6.080;2023-11-19T07:38:34;16.63;;;4.10;;
9080;SDS011;13509;50.760;6.080;2023-11-19T07:41:02;30.37;;;4.23;;
9080;SDS011;13509;50.760;6.080;2023-11-19T07:43:31;25.23;;;3.93;;
9080;SDS011;13509;50.760;6.080;2023-11-19T07:45:59;20.20;;;3.80;;
9080;SDS011;13509;50.760;6.080;2023-11-19T07:48:28;19.30;;;3.83;;
9080;SDS011;13509;50.760;6.080;2023-11-19T07:50:56;19.97;;;3.90;;
9080;SDS011;13509;50.760;6.080;2023-11-19T07:53:26;14.67;;;3.27;;
9080;SDS011;13509;50.760;6.080;2023-11-19T07:55:54;19.17;;;4.13;;
9080;SDS011;13509;50.760;6.080;2023-11-19T07:58:22;20.07;;;3.87;;
9080;SDS011;13509;50.760;6.080;2023-11-19T08:00:50;23.63;;;4.83;;
9080;SDS011;13509;50.760;6.080;2023-11-19T08:03:19;12.20;;;3.57;;
9080;SDS011;13509;50.760;6.080;2023-11-19T08:05:48;19.77;;;3.60;;
9080;SDS011;13509;50.760;6.080;2023-11-19T08:08:17;18.10;;;3.43;;
9080;SDS011;13509;50.760;6.080;2023-11-19T08:10:46;23.70;;;3.60;;
9080;SDS011;13509;50.760;6.080;2023-11-19T08:13:15;20.07;;;4.07;;
9080;SDS011;13509;50.760;6.080;2023-11-19T08:15:46;17.73;;;3.87;;
9080;SDS011;13509;50.760;6.080;2023-11-19T08:18:15;18.60;;;3.63;;
9080;SDS011;13509;50.760;6.080;2023-11-19T08:20:44;18.03;;;3.83;;
9080;SDS011;13509;50.760;6.080;2023-11-19T08:23:15;20.17;;;3.63;;
9080;SDS011;13509;50.760;6.080;2023-11-19T08:25:44;19.03;;;4.10;;
9080;SDS011;13509;50.760;6.080;2023-11-19T08:28:14;26.53;;;3.97;;
9080;SDS011;13509;50.760;6.080;2023-11-19T08:30:42;20.53;;;3.47;;
9080;SDS011;13509;50.760;6.080;2023-11-19T08:33:11;18.40;;;4.40;;
9080;SDS011;13509;50.760;6.080;2023-11-19T08:35:44;22.53;;;4.77;;
9080;SDS011;13509;50.760;6.080;2023-11-19T08:38:13;18.17;;;4.10;;
9080;SDS011;13509;50.760;6.080;2023-11-19T08:40:57;16.00;;;3.80;;
9080;SDS011;13509;50.760;6.080;2023-11-19T08:43:28;18.20;;;4.03;;
9080;SDS011;13509;50.760;6.080;2023-11-19T08:45:58;22.13;;;3.97;;
9080;SDS011;13509;50.760;6.080;2023-11-19T08:48:26;21.37;;;4.63;;
9080;SDS011;13509;50.760;6.080;2023-11-19T08:50:54;15.70;;;3.80;;
9080;SDS011;13509;50.760;6.080;2023-11-19T08:53:23;18.63;;;4.13;;
9080;SDS011;13509;50.760;6.080;2023-11-19T08:55:51;18.67;;;3.80;;
9080;SDS011;13509;50.760;6.080;2023-11-19T08:58:19;25.37;;;4.10;;
9080;SDS011;13509;50.760;6.080;2023-11-19T09:00:49;21.03;;;3.60;;
9080;SDS011;13509;50.760;6.080;2023-11-19T09:03:17;19.43;;;3.47;;
9080;SDS011;13509;50.760;6.080;2023-11-19T09:05:46;23.23;;;3.17;;
9080;SDS011;13509;50.760;6.080;2023-11-19T09:08:15;21.87;;;4.23;;
9080;SDS011;13509;50.760;6.080;2023-11-19T09:10:44;16.07;;;3.70;;
9080;SDS011;13509;50.760;6.080;2023-11-19T09:13:12;20.27;;;3.97;;
9080;SDS011;13509;50.760;6.080;2023-11-19T09:15:41;14.27;;;3.50;;
9080;SDS011;13509;50.760;6.080;2023-11-19T09:18:11;19.23;;;3.63;;
9080;SDS011;13509;50.760;6.080;2023-11-19T09:20:39;20.57;;;3.30;;
9080;SDS011;13509;50.760;6.080;2023-11-19T09:23:08;18.73;;;3.37;;
9080;SDS011;13509;50.760;6.080;2023-11-19T09:25:36;21.43;;;4.27;;
9080;SDS011;13509;50.760;6.080;2023-11-19T09:28:07;15.77;;;3.43;;
9080;SDS011;13509;50.760;6.080;2023-11-19T09:30:35;17.47;;;3.77;;
9080;SDS011;13509;50.760;6.080;2023-11-19T09:33:04;16.03;;;3.60;;
9080;SDS011;13509;50.760;6.080;2023-11-19T09:35:34;13.53;;;3.60;;
9080;SDS011;13509;50.760;6.080;2023-11-19T09:38:02;16.43;;;3.07;;
9080;SDS011;13509;50.760;6.080;2023-11-19T09:40:31;20.77;;;3.97;;
9080;SDS011;13509;50.760;6.080;2023-11-19T09:43:00;15.07;;;3.17;;
9080;SDS011;13509;50.760;6.080;2023-11-19T09:45:28;16.33;;;3.77;;
9080;SDS011;13509;50.760;6.080;2023-11-19T09:47:58;16.37;;;3.60;;
9080;SDS011;13509;50.760;6.080;2023-11-19T09:50:28;20.53;;;4.33;;
9080;SDS011;13509;50.760;6.080;2023-11-19T09:52:58;18.30;;;3.77;;
9080;SDS011;13509;50.760;6.080;2023-11-19T09:55:26;16.57;;;3.63;;
9080;SDS011;13509;50.760;6.080;2023-11-19T09:57:54;14.30;;;3.87;;
9080;SDS011;13509;50.760;6.080;2023-11-19T10:00:25;18.50;;;3.47;;
9080;SDS011;13509;50.760;6.080;2023-11-19T10:02:54;21.80;;;4.10;;
9080;SDS011;13509;50.760;6.080;2023-11-19T10:05:23;19.03;;;4.07;;
9080;SDS011;13509;50.760;6.080;2023-11-19T10:07:52;21.73;;;3.43;;
9080;SDS011;13509;50.760;6.080;2023-11-19T10:10:23;16.80;;;3.83;;
9080;SDS011;13509;50.760;6.080;2023-11-19T10:12:52;16.30;;;3.50;;
9080;SDS011;13509;50.760;6.080;2023-11-19T10:15:23;17.33;;;4.33;;
9080;SDS011;13509;50.760;6.080;2023-11-19T10:17:54;18.93;;;2.93;;
9080;SDS011;13509;50.760;6.080;2023-11-19T10:20:23;14.03;;;3.53;;
9080;SDS011;13509;50.760;6.080;2023-11-19T10:22:52;19.87;;;3.97;;
9080;SDS011;13509;50.760;6.080;2023-11-19T10:25:22;15.23;;;3.47;;
9080;SDS011;13509;50.760;6.080;2023-11-19T10:27:51;12.33;;;2.93;;
9080;SDS011;13509;50.760;6.080;2023-11-19T10:30:20;15.77;;;3.03;;
9080;SDS011;13509;50.760;6.080;2023-11-19T10:33:04;15.83;;;3.13;;
9080;SDS011;13509;50.760;6.080;2023-11-19T10:35:33;14.70;;;3.20;;
9080;SDS011;13509;50.760;6.080;2023-11-19T10:38:03;19.70;;;3.80;;
9080;SDS011;13509;50.760;6.080;2023-11-19T10:40:43;14.20;;;3.80;;
9080;SDS011;13509;50.760;6.080;2023-11-19T10:43:12;12.50;;;2.57;;
9080;SDS011;13509;50.760;6.080;2023-11-19T10:45:40;12.47;;;2.67;;
9080;SDS011;13509;50.760;6.080;2023-11-19T10:48:09;18.17;;;2.97;;
9080;SDS011;13509;50.760;6.080;2023-11-19T10:50:39;11.50;;;3.30;;
9080;SDS011;13509;50.760;6.080;2023-11-19T10:53:08;14.73;;;2.93;;
9080;SDS011;13509;50.760;6.080;2023-11-19T10:55:37;14.17;;;3.10;;
9080;SDS011;13509;50.760;6.080;2023-11-19T10:58:07;14.50;;;3.50;;
9080;SDS011;13509;50.760;6.080;2023-11-19T11:00:38;17.10;;;3.53;;
9080;SDS011;13509;50.760;6.080;2023-11-19T11:03:09;12.70;;;3.13;;
9080;SDS011;13509;50.760;6.080;2023-11-19T11:05:38;14.00;;;3.23;;
9080;SDS011;13509;50.760;6.080;2023-11-19T11:08:07;13.83;;;2.77;;
9080;SDS011;13509;50.760;6.080;2023-11-19T11:10:37;12.17;;;3.00;;
9080;SDS011;13509;50.760;6.080;2023-11-19T11:13:24;14.83;;;3.40;;
9080;SDS011;13509;50.760;6.080;2023-11-19T11:15:54;17.40;;;3.90;;
9080;SDS011;13509;50.760;6.080;2023-11-19T11:18:24;15.47;;;2.97;;
9080;SDS011;13509;50.760;6.080;2023-11-19T11:20:54;14.00;;;2.87;;
9080;SDS011;13509;50.760;6.080;2023-11-19T11:26:18;16.10;;;3.40;;
9080;SDS011;13509;50.760;6.080;2023-11-19T11:28:54;13.93;;;3.47;;
9080;SDS011;13509;50.760;6.080;2023-11-19T11:31:30;14.93;;;3.30;;
9080;SDS011;13509;50.760;6.080;2023-11-19T11:34:05;20.73;;;3.10;;
9080;SDS011;13509;50.760;6.080;2023-11-19T11:36:38;14.23;;;3.13;;
9080;SDS011;13509;50.760;6.080;2023-11-19T11:39:12;17.93;;;3.83;;
9080;SDS011;13509;50.760;6.080;2023-11-19T11:41:41;13.83;;;3.23;;
9080;SDS011;13509;50.760;6.080;2023-11-19T11:44:13;15.17;;;3.17;;
9080;SDS011;13509;50.760;6.080;2023-11-19T11:46:53;18.30;;;3.43;;
9080;SDS011;13509;50.760;6.080;2023-11-19T11:49:25;16.17;;;3.30;;
9080;SDS011;13509;50.760;6.080;2023-11-19T11:51:57;12.27;;;2.77;;
9080;SDS011;13509;50.760;6.080;2023-11-19T11:54:26;12.07;;;3.10;;
9080;SDS011;13509;50.760;6.080;2023-11-19T11:57:06;17.37;;;3.63;;
9080;SDS011;13509;50.760;6.080;2023-11-19T11:59:49;15.90;;;3.53;;
9080;SDS011;13509;50.760;6.080;2023-11-19T12:02:19;16.33;;;3.67;;
9080;SDS011;13509;50.760;6.080;2023-11-19T12:04:48;13.83;;;3.93;;
9080;SDS011;13509;50.760;6.080;2023-11-19T12:07:18;14.57;;;3.57;;
9080;SDS011;13509;50.760;6.080;2023-11-19T12:09:48;13.33;;;2.70;;
9080;SDS011;13509;50.760;6.080;2023-11-19T12:12:20;13.53;;;2.77;;
9080;SDS011;13509;50.760;6.080;2023-11-19T12:15:01;16.33;;;2.80;;
9080;SDS011;13509;50.760;6.080;2023-11-19T12:17:41;16.70;;;3.07;;
9080;SDS011;13509;50.760;6.080;2023-11-19T12:20:11;19.70;;;4.20;;
9080;SDS011;13509;50.760;6.080;2023-11-19T12:22:41;15.67;;;3.33;;
9080;SDS011;13509;50.760;6.080;2023-11-19T12:25:11;21.00;;;4.67;;
9080;SDS011;13509;50.760;6.080;2023-11-19T12:27:39;15.13;;;3.53;;
9080;SDS011;13509;50.760;6.080;2023-11-19T12:30:09;18.57;;;3.67;;
9080;SDS011;13509;50.760;6.080;2023-11-19T12:32:37;14.33;;;3.07;;
9080;SDS011;13509;50.760;6.080;2023-11-19T12:35:07;16.27;;;2.80;;
9080;SDS011;13509;50.760;6.080;2023-11-19T12:37:41;14.77;;;3.50;;
9080;SDS011;13509;50.760;6.080;2023-11-19T12:40:16;19.40;;;3.93;;
9080;SDS011;13509;50.760;6.080;2023-11-19T12:42:45;15.30;;;3.70;;
9080;SDS011;13509;50.760;6.080;2023-11-19T12:45:15;18.27;;;3.30;;
9080;SDS011;13509;50.760;6.080;2023-11-19T12:47:46;15.87;;;3.40;;
9080;SDS011;13509;50.760;6.080;2023-11-19T12:50:16;13.50;;;3.57;;
9080;SDS011;13509;50.760;6.080;2023-11-19T12:52:54;22.70;;;3.20;;
9080;SDS011;13509;50.760;6.080;2023-11-19T12:55:24;13.97;;;2.63;;
9080;SDS011;13509;50.760;6.080;2023-11-19T12:57:56;19.70;;;4.53;;
9080;SDS011;13509;50.760;6.080;2023-11-19T13:00:27;18.87;;;3.83;;
9080;SDS011;13509;50.760;6.080;2023-11-19T13:02:56;24.93;;;3.50;;
9080;SDS011;13509;50.760;6.080;2023-11-19T13:05:26;15.43;;;2.80;;
9080;SDS011;13509;50.760;6.080;2023-11-19T13:07:59;13.20;;;3.53;;
9080;SDS011;13509;50.760;6.080;2023-11-19T13:10:27;17.43;;;3.23;;
9080;SDS011;13509;50.760;6.080;2023-11-19T13:12:59;14.20;;;3.00;;
9080;SDS011;13509;50.760;6.080;2023-11-19T13:15:29;18.73;;;3.43;;
9080;SDS011;13509;50.760;6.080;2023-11-19T13:17:58;10.63;;;3.20;;
9080;SDS011;13509;50.760;6.080;2023-11-19T13:20:27;12.23;;;2.63;;
9080;SDS011;13509;50.760;6.080;2023-11-19T13:22:56;22.20;;;3.57;;
9080;SDS011;13509;50.760;6.080;2023-11-19T13:25:24;16.10;;;3.27;;
9080;SDS011;13509;50.760;6.080;2023-11-19T13:27:53;15.87;;;3.20;;
9080;SDS011;13509;50.760;6.080;2023-11-19T13:30:21;20.70;;;3.73;;
9080;SDS011;13509;50.760;6.080;2023-11-19T13:32:54;16.67;;;3.37;;
9080;SDS011;13509;50.760;6.080;2023-11-19T13:35:23;18.40;;;3.93;;
9080;SDS011;13509;50.760;6.080;2023-11-19T13:37:51;17.77;;;3.20;;
9080;SDS011;13509;50.760;6.080;2023-11-19T13:40:20;16.73;;;2.70;;
9080;SDS011;13509;50.760;6.080;2023-11-19T13:42:50;16.20;;;3.57;;
9080;SDS011;13509;50.760;6.080;2023-11-19T13:45:19;12.57;;;2.90;;
9080;SDS011;13509;50.760;6.080;2023-11-19T13:47:47;12.93;;;2.70;;
9080;SDS011;13509;50.760;6.080;2023-11-19T13:50:17;14.53;;;3.73;;
9080;SDS011;13509;50.760;6.080;2023-11-19T13:52:46;15.73;;;3.00;;
9080;SDS011;13509;50.760;6.080;2023-11-19T13:55:15;13.97;;;2.70;;
9080;SDS011;13509;50.760;6.080;2023-11-19T13:57:44;16.47;;;3.10;;
9080;SDS011;13509;50.760;6.080;2023-11-19T14:00:13;10.43;;;2.90;;
9080;SDS011;13509;50.760;6.080;2023-11-19T14:02:42;9.87;;;2.60;;
9080;SDS011;13509;50.760;6.080;2023-11-19T14:05:11;14.83;;;3.00;;
9080;SDS011;13509;50.760;6.080;2023-11-19T14:07:41;22.03;;;3.43;;
9080;SDS011;13509;50.760;6.080;2023-11-19T14:10:09;10.63;;;2.63;;
9080;SDS011;13509;50.760;6.080;2023-11-19T14:12:38;14.73;;;2.80;;
9080;SDS011;13509;50.760;6.080;2023-11-19T14:15:07;17.63;;;3.33;;
9080;SDS011;13509;50.760;6.080;2023-11-19T14:17:36;12.60;;;3.07;;
9080;SDS011;13509;50.760;6.080;2023-11-19T14:20:05;14.43;;;2.93;;
9080;SDS011;13509;50.760;6.080;2023-11-19T14:22:39;13.07;;;3.10;;
9080;SDS011;13509;50.760;6.080;2023-11-19T14:25:09;11.43;;;3.10;;
9080;SDS011;13509;50.760;6.080;2023-11-19T14:27:38;17.07;;;3.43;;
9080;SDS011;13509;50.760;6.080;2023-11-19T14:30:07;18.20;;;3.73;;
9080;SDS011;13509;50.760;6.080;2023-11-19T14:32:37;13.73;;;2.73;;
9080;SDS011;13509;50.760;6.080;2023-11-19T14:35:06;10.20;;;3.23;;
9080;SDS011;13509;50.760;6.080;2023-11-19T14:37:34;16.03;;;3.37;;
9080;SDS011;13509;50.760;6.080;2023-11-19T14:40:03;19.53;;;3.50;;
9080;SDS011;13509;50.760;6.080;2023-11-19T14:42:33;14.43;;;3.60;;
9080;SDS011;13509;50.760;6.080;2023-11-19T14:45:02;15.77;;;3.00;;
9080;SDS011;13509;50.760;6.080;2023-11-19T14:47:31;11.73;;;2.97;;
9080;SDS011;13509;50.760;6.080;2023-11-19T14:49:59;13.30;;;3.47;;
9080;SDS011;13509;50.760;6.080;2023-11-19T14:52:28;14.43;;;3.60;;
9080;SDS011;13509;50.760;6.080;2023-11-19T14:54:56;16.40;;;3.53;;
9080;SDS011;13509;50.760;6.080;2023-11-19T14:57:25;14.53;;;3.20;;
9080;SDS011;13509;50.760;6.080;2023-11-19T14:59:55;20.77;;;3.33;;
9080;SDS011;13509;50.760;6.080;2023-11-19T15:02:23;14.77;;;3.13;;
9080;SDS011;13509;50.760;6.080;2023-11-19T15:04:51;15.13;;;3.63;;
9080;SDS011;13509;50.760;6.080;2023-11-19T15:07:20;18.07;;;3.20;;